createdAt,value
2022-08-16T00:00:47.394Z,6.93
2022-08-16T00:03:20.655Z,7.40
2022-08-16T00:05:57.759Z,6.88
2022-08-16T00:08:35.937Z,7.35
2022-08-16T00:11:06.535Z,6.82
2022-08-16T00:13:41.733Z,8.10
2022-08-16T00:17:05.987Z,6.78
2022-08-16T00:19:01.345Z,8.00
2022-08-16T00:21:30.898Z,7.68
2022-08-16T00:23:59.925Z,7.45
2022-08-16T00:26:43.701Z,6.93
2022-08-16T00:29:17.000Z,8.73
2022-08-16T00:32:00.992Z,6.45
2022-08-16T00:34:44.726Z,8.75
2022-08-16T00:37:24.163Z,7.07
2022-08-16T00:39:58.210Z,6.55
2022-08-16T00:42:31.464Z,6.57
2022-08-16T00:45:09.654Z,7.15
2022-08-16T00:47:48.994Z,6.95
2022-08-16T00:50:18.907Z,6.18
2022-08-16T00:52:50.800Z,6.75
2022-08-16T00:55:21.984Z,6.85
2022-08-16T00:57:59.781Z,7.15
2022-08-16T01:00:33.525Z,6.05
2022-08-16T01:03:11.694Z,7.38
2022-08-16T01:05:42.215Z,6.57
2022-08-16T01:08:36.060Z,6.97
2022-08-16T01:11:02.548Z,7.65
2022-08-16T01:13:34.844Z,7.38
2022-08-16T01:16:10.280Z,6.43
2022-08-16T01:18:44.351Z,6.90
2022-08-16T01:21:22.261Z,6.53
2022-08-16T01:24:05.114Z,6.68
2022-08-16T01:26:57.884Z,7.38
2022-08-16T01:29:58.445Z,7.38
2022-08-16T01:32:33.635Z,6.18
2022-08-16T01:35:07.775Z,7.10
2022-08-16T01:37:42.558Z,9.60
2022-08-16T01:40:15.438Z,6.40
2022-08-16T01:42:48.179Z,6.07
2022-08-16T01:45:19.735Z,6.68
2022-08-16T01:47:51.929Z,7.75
2022-08-16T01:50:42.482Z,6.25
2022-08-16T01:53:12.082Z,6.47
2022-08-16T01:55:44.134Z,7.60
2022-08-16T01:58:24.596Z,7.03
2022-08-16T02:00:53.195Z,6.22
2022-08-16T02:03:24.338Z,7.78
2022-08-16T02:05:55.404Z,5.90
2022-08-16T02:08:33.631Z,6.28
2022-08-16T02:11:06.694Z,6.07
2022-08-16T02:13:35.806Z,9.93
2022-08-16T02:16:18.380Z,6.28
2022-08-16T02:18:47.945Z,6.22
2022-08-16T02:21:17.373Z,5.78
2022-08-16T02:24:00.454Z,7.10
2022-08-16T02:26:34.301Z,5.55
2022-08-16T02:29:03.140Z,6.13
2022-08-16T02:32:03.558Z,6.63
2022-08-16T02:34:21.204Z,6.03
2022-08-16T02:37:01.714Z,5.40
2022-08-16T02:39:30.427Z,5.53
2022-08-16T02:42:00.724Z,5.88
2022-08-16T02:44:29.853Z,7.07
2022-08-16T02:46:58.444Z,5.72
2022-08-16T02:49:58.591Z,7.88
2022-08-16T02:52:17.168Z,6.20
2022-08-16T02:54:55.178Z,6.80
2022-08-16T02:57:26.185Z,6.05
2022-08-16T02:59:55.485Z,5.53
2022-08-16T03:02:31.844Z,5.40
2022-08-16T03:05:01.745Z,6.30
2022-08-16T03:07:30.524Z,7.40
2022-08-16T03:12:37.833Z,5.25
2022-08-16T03:15:24.544Z,5.53
2022-08-16T03:17:54.325Z,6.55
2022-08-16T03:20:32.426Z,5.32
2022-08-16T03:23:02.015Z,5.40
2022-08-16T03:25:40.726Z,5.70
2022-08-16T03:28:17.153Z,7.07
2022-08-16T03:30:46.208Z,6.68
2022-08-16T03:33:16.576Z,6.10
2022-08-16T03:35:45.444Z,5.93
2022-08-16T03:38:34.225Z,6.72
2022-08-16T03:41:24.191Z,5.32
2022-08-16T03:43:56.048Z,5.35
2022-08-16T03:46:47.678Z,6.95
2022-08-16T03:49:13.934Z,5.80
2022-08-16T03:51:43.654Z,5.28
2022-08-16T03:54:12.922Z,5.15
2022-08-16T03:56:58.051Z,5.15
2022-08-16T03:59:29.297Z,4.97
2022-08-16T04:01:58.844Z,5.97
2022-08-16T04:04:32.721Z,6.10
2022-08-16T04:07:05.767Z,6.38
2022-08-16T04:09:38.312Z,5.93
2022-08-16T04:12:10.587Z,6.05
2022-08-16T04:14:46.740Z,5.35
2022-08-16T04:17:17.844Z,5.32
2022-08-16T04:19:46.825Z,5.43
2022-08-16T04:22:17.188Z,5.72
2022-08-16T04:24:55.366Z,6.18
2022-08-16T04:27:28.926Z,5.70
2022-08-16T04:30:02.846Z,5.20
2022-08-16T04:32:32.698Z,4.70
2022-08-16T04:35:07.600Z,5.55
2022-08-16T04:37:42.317Z,4.68
2022-08-16T04:40:21.470Z,5.30
2022-08-16T04:42:54.725Z,4.70
2022-08-16T04:45:35.735Z,6.25
2022-08-16T04:48:05.964Z,6.95
2022-08-16T04:50:34.885Z,5.22
2022-08-16T04:53:04.214Z,4.80
2022-08-16T04:55:38.378Z,4.60
2022-08-16T04:58:44.920Z,5.00
2022-08-16T05:00:58.764Z,5.10
2022-08-16T05:03:27.321Z,4.53
2022-08-16T05:06:00.035Z,6.25
2022-08-16T05:08:34.271Z,5.75
2022-08-16T05:11:08.556Z,5.55
2022-08-16T05:13:42.458Z,5.60
2022-08-16T05:16:16.666Z,5.45
2022-08-16T05:18:49.614Z,5.25
2022-08-16T05:21:20.773Z,4.38
2022-08-16T05:23:55.527Z,5.45
2022-08-16T05:26:27.990Z,5.00
2022-08-16T05:28:58.175Z,5.78
2022-08-16T05:31:30.429Z,5.47
2022-08-16T05:34:00.950Z,5.03
2022-08-16T05:36:33.902Z,5.60
2022-08-16T05:39:08.770Z,5.18
2022-08-16T05:41:44.636Z,6.03
2022-08-16T05:44:23.598Z,5.30
2022-08-16T05:47:00.009Z,5.43
2022-08-16T05:49:39.402Z,5.43
2022-08-16T05:52:11.114Z,4.75
2022-08-16T05:54:47.250Z,5.75
2022-08-16T05:57:17.915Z,4.93
2022-08-16T05:59:50.445Z,5.55
2022-08-16T06:02:39.667Z,5.20
2022-08-16T06:05:10.977Z,5.18
2022-08-16T06:07:39.884Z,4.25
2022-08-16T06:10:10.166Z,5.10
2022-08-16T06:12:39.255Z,5.95
2022-08-16T06:15:10.478Z,5.20
2022-08-16T06:17:42.638Z,5.05
2022-08-16T06:20:18.501Z,5.78
2022-08-16T06:22:58.696Z,4.30
2022-08-16T06:25:36.459Z,4.65
2022-08-16T06:28:17.131Z,8.00
2022-08-16T06:31:00.404Z,4.55
2022-08-16T06:33:40.233Z,4.93
2022-08-16T06:36:13.926Z,4.45
2022-08-16T06:38:52.347Z,4.65
2022-08-16T06:41:27.669Z,4.57
2022-08-16T06:43:56.676Z,4.15
2022-08-16T06:46:31.986Z,4.60
2022-08-16T06:51:46.214Z,5.03
2022-08-16T06:54:17.354Z,4.65
2022-08-16T06:56:46.285Z,5.70
2022-08-16T06:59:15.184Z,4.57
2022-08-16T07:01:54.599Z,5.55
2022-08-16T07:04:32.750Z,4.40
2022-08-16T07:07:02.977Z,5.18
2022-08-16T07:09:32.522Z,4.95
2022-08-16T07:12:03.452Z,4.65
2022-08-16T07:14:35.123Z,5.70
2022-08-16T07:17:08.415Z,6.32
2022-08-16T07:20:03.598Z,4.60
2022-08-16T07:22:37.771Z,3.92
2022-08-16T07:25:10.146Z,4.55
2022-08-16T07:27:41.438Z,4.45
2022-08-16T07:30:38.522Z,4.80
2022-08-16T07:33:04.855Z,4.28
2022-08-16T07:35:44.319Z,4.65
2022-08-16T07:38:19.560Z,5.55
2022-08-16T07:41:00.291Z,3.67
2022-08-16T07:43:33.605Z,5.90
2022-08-16T07:46:05.485Z,4.35
2022-08-16T07:49:02.511Z,4.35
2022-08-16T07:51:35.507Z,6.38
2022-08-16T07:54:21.099Z,10.50
2022-08-16T07:57:01.255Z,15.43
2022-08-16T07:59:42.808Z,10.05
2022-08-16T08:02:21.825Z,9.70
2022-08-16T08:04:58.367Z,7.13
2022-08-16T08:07:29.467Z,16.92
2022-08-16T08:10:01.261Z,9.43
2022-08-16T08:12:36.307Z,10.32
2022-08-16T08:15:09.577Z,11.05
2022-08-16T08:17:42.991Z,8.55
2022-08-16T08:20:20.657Z,6.47
2022-08-16T08:23:00.684Z,11.35
2022-08-16T08:25:54.060Z,7.20
2022-08-16T08:28:20.548Z,7.15
2022-08-16T08:31:01.383Z,6.70
2022-08-16T08:33:31.731Z,6.82
2022-08-16T08:36:07.653Z,8.43
2022-08-16T08:38:44.073Z,6.65
2022-08-16T08:41:18.999Z,7.93
2022-08-16T08:43:50.323Z,6.25
2022-08-16T08:46:21.564Z,6.55
2022-08-16T08:48:59.565Z,8.15
2022-08-16T08:51:31.843Z,10.13
2022-08-16T08:54:07.064Z,6.07
2022-08-16T08:56:45.534Z,6.80
2022-08-16T08:59:20.254Z,3.75
2022-08-16T09:01:57.463Z,5.20
2022-08-16T09:04:28.110Z,5.18
2022-08-16T09:06:58.308Z,7.38
2022-08-16T09:09:33.397Z,6.63
2022-08-16T09:12:06.307Z,6.68
2022-08-16T09:14:38.789Z,5.43
2022-08-16T09:17:38.266Z,5.03
2022-08-16T09:20:08.365Z,5.63
2022-08-16T09:22:39.295Z,5.05
2022-08-16T09:25:14.808Z,6.03
2022-08-16T09:27:57.171Z,5.53
2022-08-16T09:30:42.861Z,7.38
2022-08-16T09:33:15.396Z,4.18
2022-08-16T09:35:46.737Z,4.22
2022-08-16T09:38:31.998Z,4.18
2022-08-16T09:41:04.161Z,5.90
2022-08-16T09:43:58.482Z,3.08
2022-08-16T09:46:48.964Z,4.75
2022-08-16T09:49:20.976Z,5.40
2022-08-16T09:51:57.173Z,4.45
2022-08-16T09:54:32.697Z,3.33
2022-08-16T09:59:42.441Z,4.80
2022-08-16T10:02:25.965Z,3.50
2022-08-16T10:04:57.767Z,4.10
2022-08-16T10:07:44.426Z,5.25
2022-08-16T10:10:19.035Z,3.75
2022-08-16T10:13:16.417Z,3.25
2022-08-16T10:16:18.698Z,4.53
2022-08-16T10:19:19.414Z,3.83
2022-08-16T10:21:59.035Z,5.05
2022-08-16T10:24:34.960Z,4.03
2022-08-16T10:27:28.926Z,6.55
2022-08-16T10:30:28.328Z,5.13
2022-08-16T10:33:05.735Z,6.13
2022-08-16T10:35:46.593Z,4.03
2022-08-16T10:38:27.013Z,3.65
2022-08-16T10:41:00.620Z,3.08
2022-08-16T10:43:32.004Z,3.60
2022-08-16T10:46:39.748Z,3.38
2022-08-16T10:49:11.907Z,3.53
2022-08-16T10:52:01.660Z,3.72
2022-08-16T10:54:58.662Z,6.03
2022-08-16T10:57:25.044Z,4.45
2022-08-16T11:00:21.143Z,4.30
2022-08-16T11:02:59.636Z,4.72
2022-08-16T11:05:58.998Z,3.80
2022-08-16T11:08:31.218Z,6.10
2022-08-16T11:11:11.766Z,5.22
2022-08-16T11:14:06.097Z,3.97
2022-08-16T11:19:22.915Z,6.57
2022-08-16T11:24:45.041Z,3.35
2022-08-16T11:27:19.860Z,5.22
2022-08-16T11:29:52.280Z,5.43
2022-08-16T11:32:26.751Z,6.00
2022-08-16T11:35:11.199Z,6.50
2022-08-16T11:40:40.683Z,5.20
2022-08-16T11:43:16.891Z,5.32
2022-08-16T11:45:53.526Z,7.07
2022-08-16T11:48:24.054Z,5.22
2022-08-16T11:50:58.315Z,6.05
2022-08-16T11:53:30.015Z,4.78
2022-08-16T11:56:06.271Z,3.88
2022-08-16T11:58:38.477Z,4.57
2022-08-16T12:01:08.096Z,5.60
2022-08-16T12:03:41.810Z,4.90
2022-08-16T12:06:25.113Z,6.30
2022-08-16T12:09:00.949Z,4.32
2022-08-16T12:11:31.617Z,4.90
2022-08-16T12:14:00.713Z,3.15
2022-08-16T12:16:30.979Z,4.60
2022-08-16T12:19:04.320Z,5.35
2022-08-16T12:21:57.529Z,5.05
2022-08-16T12:24:24.203Z,2.95
2022-08-16T12:26:52.881Z,3.88
2022-08-16T12:29:22.479Z,4.68
2022-08-16T12:32:00.772Z,4.63
2022-08-16T12:34:30.933Z,2.90
2022-08-16T12:37:05.671Z,4.55
2022-08-16T12:39:39.697Z,4.72
2022-08-16T12:42:20.903Z,3.80
2022-08-16T12:45:02.904Z,3.97
2022-08-16T12:47:48.749Z,4.18
2022-08-16T12:50:18.907Z,4.88
2022-08-16T12:52:59.595Z,3.55
2022-08-16T12:55:33.620Z,5.90
2022-08-16T12:58:13.710Z,4.28
2022-08-16T13:01:02.022Z,4.35
2022-08-16T13:03:40.125Z,3.88
2022-08-16T13:06:20.193Z,4.22
2022-08-16T13:09:31.326Z,3.70
2022-08-16T13:12:20.948Z,4.20
2022-08-16T13:14:50.343Z,3.88
2022-08-16T13:17:22.303Z,2.80
2022-08-16T13:20:07.334Z,4.55
2022-08-16T13:22:37.533Z,4.75
2022-08-16T13:25:09.555Z,5.28
2022-08-16T13:28:02.280Z,5.97
2022-08-16T13:30:36.895Z,3.60
2022-08-16T13:33:13.355Z,3.72
2022-08-16T13:35:55.928Z,6.60
2022-08-16T13:38:29.058Z,4.80
2022-08-16T13:41:03.774Z,5.75
2022-08-16T13:43:33.585Z,4.38
2022-08-16T13:46:04.950Z,3.63
2022-08-16T13:48:42.699Z,3.55
2022-08-16T13:51:16.708Z,4.20
2022-08-16T13:53:54.497Z,4.20
2022-08-16T13:56:37.070Z,4.75
2022-08-16T13:59:14.236Z,3.70
2022-08-16T14:01:55.586Z,4.82
2022-08-16T14:04:27.662Z,4.88
2022-08-16T14:06:57.989Z,4.38
2022-08-16T14:09:32.210Z,3.75
2022-08-16T14:12:17.561Z,4.03
2022-08-16T14:14:47.213Z,3.35
2022-08-16T14:17:16.602Z,4.68
2022-08-16T14:19:46.079Z,2.85
2022-08-16T14:22:30.227Z,5.63
2022-08-16T14:25:10.216Z,4.22
2022-08-16T14:27:54.650Z,3.53
2022-08-16T14:30:27.314Z,4.35
2022-08-16T14:33:00.754Z,5.78
2022-08-16T14:35:48.486Z,4.35
2022-08-16T14:38:25.196Z,3.67
2022-08-16T14:40:58.423Z,4.32
2022-08-16T14:43:31.144Z,3.47
2022-08-16T14:46:06.608Z,3.63
2022-08-16T14:48:36.294Z,4.95
2022-08-16T14:51:27.429Z,4.15
2022-08-16T14:54:11.146Z,2.42
2022-08-16T14:56:55.529Z,3.92
2022-08-16T14:59:41.138Z,3.80
2022-08-16T15:02:34.587Z,4.47
2022-08-16T15:05:08.033Z,4.78
2022-08-16T15:07:43.029Z,3.15
2022-08-16T15:10:24.006Z,2.85
2022-08-16T15:12:56.378Z,4.05
2022-08-16T15:15:30.298Z,5.90
2022-08-16T15:17:59.425Z,6.00
2022-08-16T15:20:33.769Z,4.30
2022-08-16T15:23:08.739Z,5.80
2022-08-16T15:25:41.450Z,4.20
2022-08-16T15:28:24.067Z,5.28
2022-08-16T15:31:04.387Z,4.07
2022-08-16T15:33:39.308Z,5.55
2022-08-16T15:36:18.363Z,5.03
2022-08-16T15:39:02.720Z,3.85
2022-08-16T15:42:01.102Z,5.63
2022-08-16T15:44:44.621Z,5.70
2022-08-16T15:47:25.797Z,4.68
2022-08-16T15:49:56.067Z,5.43
2022-08-16T15:52:30.358Z,5.15
2022-08-16T15:55:13.249Z,4.60
2022-08-16T15:57:51.321Z,4.30
2022-08-16T16:00:29.880Z,4.30
2022-08-16T16:03:37.650Z,4.50
2022-08-16T16:06:13.608Z,3.30
2022-08-16T16:09:01.419Z,5.15
2022-08-16T16:11:43.270Z,4.88
2022-08-16T16:14:27.612Z,4.30
2022-08-16T16:17:01.050Z,6.57
2022-08-16T16:19:31.688Z,8.07
2022-08-16T16:22:00.980Z,11.30
2022-08-16T16:24:30.580Z,9.23
2022-08-16T16:27:00.109Z,9.52
2022-08-16T16:29:29.228Z,10.43
2022-08-16T16:32:07.758Z,6.90
2022-08-16T16:34:38.788Z,6.38
2022-08-16T16:37:10.071Z,6.10
2022-08-16T16:39:38.764Z,6.93
2022-08-16T16:42:09.163Z,9.18
2022-08-16T16:44:58.846Z,8.27
2022-08-16T16:47:29.712Z,10.00
2022-08-16T16:49:59.652Z,9.35
2022-08-16T16:52:31.358Z,7.85
2022-08-16T16:55:13.381Z,11.38
2022-08-16T16:58:01.128Z,11.82
2022-08-16T17:00:38.528Z,11.43
2022-08-16T17:05:56.860Z,8.10
2022-08-16T17:08:31.269Z,11.50
2022-08-16T17:10:59.869Z,14.00
2022-08-16T17:13:28.639Z,9.02
2022-08-16T17:15:57.098Z,11.93
2022-08-16T17:19:14.428Z,11.05
2022-08-16T17:21:18.378Z,7.63
2022-08-16T17:26:36.730Z,9.45
2022-08-16T17:29:11.609Z,10.25
2022-08-16T17:31:43.561Z,8.82
2022-08-16T17:37:08.029Z,8.73
2022-08-16T17:39:28.121Z,7.93
2022-08-16T17:39:28.631Z,11.73
2022-08-16T17:39:58.132Z,11.40
2022-08-16T17:42:26.703Z,11.00
2022-08-16T17:44:55.729Z,10.93
2022-08-16T17:47:24.190Z,11.05
2022-08-16T17:49:52.840Z,9.77
2022-08-16T17:52:23.229Z,9.70
2022-08-16T17:54:51.739Z,15.43
2022-08-16T17:57:20.169Z,8.60
2022-08-16T17:59:50.360Z,10.07
2022-08-16T18:02:43.956Z,12.73
2022-08-16T18:05:16.273Z,8.02
2022-08-16T18:07:46.868Z,10.20
2022-08-16T18:10:21.241Z,12.05
2022-08-16T18:13:02.166Z,9.48
2022-08-16T18:15:31.554Z,8.82
2022-08-16T18:18:00.789Z,10.45
2022-08-16T18:20:47.130Z,10.38
2022-08-16T18:23:20.611Z,8.80
2022-08-16T18:25:52.910Z,8.00
2022-08-16T18:28:21.700Z,9.38
2022-08-16T18:30:52.029Z,11.80
2022-08-16T18:33:24.140Z,7.43
2022-08-16T18:35:57.581Z,8.55
2022-08-16T18:38:28.590Z,8.68
2022-08-16T18:40:57.279Z,10.88
2022-08-16T18:44:22.510Z,8.75
2022-08-16T18:46:15.331Z,7.70
2022-08-16T18:48:43.879Z,8.77
2022-08-16T18:51:20.315Z,8.25
2022-08-16T18:53:54.461Z,9.40
2022-08-16T18:56:23.109Z,9.68
2022-08-16T18:59:11.830Z,8.80
2022-08-16T19:01:40.823Z,9.57
2022-08-16T19:04:56.151Z,11.20
2022-08-16T19:06:59.710Z,8.00
2022-08-16T19:09:29.761Z,8.80
2022-08-16T19:11:58.225Z,7.72
2022-08-16T19:14:30.271Z,10.52
2022-08-16T19:16:58.670Z,8.27
2022-08-16T19:19:27.130Z,9.35
2022-08-16T19:21:55.713Z,10.88
2022-08-16T19:24:29.040Z,7.32
2022-08-16T19:26:59.669Z,11.27
2022-08-16T19:29:30.264Z,6.90
2022-08-16T19:31:58.714Z,8.35
2022-08-16T19:34:27.231Z,10.63
2022-08-16T19:36:56.860Z,8.20
2022-08-16T19:39:29.330Z,8.90
2022-08-16T19:42:13.260Z,7.00
2022-08-16T19:44:42.623Z,6.95
2022-08-16T19:47:11.600Z,8.68
2022-08-16T19:49:40.450Z,8.85
2022-08-16T19:52:15.220Z,18.00
2022-08-16T19:54:44.950Z,8.77
2022-08-16T19:57:16.907Z,7.75
2022-08-16T19:59:46.600Z,8.50
2022-08-16T20:02:35.402Z,8.23
2022-08-16T20:05:08.041Z,9.07
2022-08-16T20:07:36.522Z,10.10
2022-08-16T20:10:06.140Z,10.05
2022-08-16T20:12:37.740Z,9.80
2022-08-16T20:15:08.141Z,7.25
2022-08-16T20:17:36.640Z,8.38
2022-08-16T20:20:06.600Z,8.07
2022-08-16T20:22:53.512Z,6.85
2022-08-16T20:25:28.331Z,7.68
2022-08-16T20:27:59.162Z,7.93
2022-08-16T20:30:30.361Z,8.35
2022-08-16T20:32:58.791Z,8.73
2022-08-16T20:35:29.211Z,8.02
2022-08-16T20:38:10.210Z,10.85
2022-08-16T20:40:39.214Z,9.98
2022-08-16T20:43:11.992Z,11.65
2022-08-16T20:45:42.260Z,10.95
2022-08-16T20:48:10.781Z,8.45
2022-08-16T20:50:39.731Z,10.68
2022-08-16T20:53:09.090Z,9.75
2022-08-16T20:55:40.237Z,11.52
2022-08-16T20:58:10.181Z,13.07
2022-08-16T21:00:40.552Z,10.38
2022-08-16T21:03:09.742Z,9.48
2022-08-16T21:05:38.721Z,12.55
2022-08-16T21:08:29.383Z,11.23
2022-08-16T21:11:06.011Z,11.32
2022-08-16T21:13:42.664Z,8.77
2022-08-16T21:16:11.947Z,9.35
2022-08-16T21:18:42.790Z,10.75
2022-08-16T21:21:19.500Z,9.13
2022-08-16T21:23:54.032Z,9.73
2022-08-16T21:26:26.552Z,9.18
2022-08-16T21:28:59.083Z,9.38
2022-08-16T21:31:28.667Z,9.57
2022-08-16T21:34:04.776Z,11.68
2022-08-16T21:36:37.681Z,8.30
2022-08-16T21:39:15.874Z,10.43
2022-08-16T21:41:51.841Z,14.23
2022-08-16T21:47:06.261Z,12.10
2022-08-16T21:49:40.352Z,10.85
2022-08-16T21:52:26.327Z,12.82
2022-08-16T21:55:00.510Z,10.93
2022-08-16T21:57:35.337Z,11.27
2022-08-16T22:02:50.945Z,16.30
2022-08-16T22:05:24.561Z,12.65
2022-08-16T22:08:01.233Z,12.55
2022-08-16T22:11:06.707Z,12.20
2022-08-16T22:13:32.401Z,11.50
2022-08-16T22:16:08.132Z,9.18
2022-08-16T22:21:10.680Z,11.85
2022-08-16T22:23:40.686Z,10.77
2022-08-16T22:26:10.401Z,10.50
2022-08-16T22:28:44.001Z,8.18
2022-08-16T22:31:15.073Z,9.23
2022-08-16T22:33:45.011Z,10.82
2022-08-16T22:36:18.271Z,9.93
2022-08-16T22:38:56.602Z,7.53
2022-08-16T22:41:30.351Z,8.38
2022-08-16T22:43:59.771Z,9.05
2022-08-16T22:46:30.642Z,10.15
2022-08-16T22:49:04.441Z,9.00
2022-08-16T22:55:26.844Z,9.57
2022-08-16T22:57:57.520Z,8.55
2022-08-16T23:00:28.821Z,9.43
2022-08-16T23:03:07.161Z,8.60
2022-08-16T23:05:38.670Z,7.97
2022-08-16T23:08:09.671Z,9.45
2022-08-16T23:10:38.530Z,10.23
2022-08-16T23:13:08.502Z,8.82
2022-08-16T23:15:42.841Z,9.05
2022-08-16T23:18:14.183Z,7.00
2022-08-16T23:20:43.820Z,8.55
2022-08-16T23:23:21.272Z,6.93
2022-08-16T23:25:54.891Z,6.63
2022-08-16T23:28:27.483Z,9.07
2022-08-16T23:30:58.052Z,8.90
2022-08-16T23:33:29.620Z,7.95
2022-08-16T23:35:59.740Z,9.52
2022-08-16T23:38:38.352Z,9.45
2022-08-16T23:41:13.075Z,9.05
2022-08-16T23:43:43.644Z,8.35
2022-08-16T23:46:15.359Z,13.95
2022-08-16T23:49:58.839Z,7.50
2022-08-16T23:51:35.760Z,8.82
2022-08-16T23:54:08.517Z,6.97
2022-08-16T23:56:40.828Z,8.57
2022-08-16T23:59:09.761Z,8.23
